Time;durP1;ratioP1;P1;durP2;ratioP2;P2;SDS_P1;SDS_P2;PMS_P1;PMS_P2;Temp;Humidity;BMP_temperature;BMP_pressure;BME280_temperature;BME280_humidity;BME280_pressure;Samples;Min_cycle;Max_cycle;Signal;HPM_P1;HPM_P2
2022/11/27 00:01:44;;;;;;;;;;;;;;;24.46;43.96;95262.56;4931820;29;7040;-61
2022/11/27 00:04:18;;;;;;;;;;;;;;;24.48;44.19;95262.81;4962924;28;10218;-61
2022/11/27 00:06:44;;;;;;;;;;;;;;;24.48;44.11;95253.81;4991209;28;7106;-61
2022/11/27 00:09:22;;;;;;;;;;;;;;;24.48;44.19;95262.06;4993806;28;7244;-61
2022/11/27 00:11:49;;;;;;;;;;;;;;;24.46;44.24;95259.81;4977165;28;9070;-61
2022/11/27 00:14:16;;;;;;;;;;;;;;;24.46;43.63;95264.53;4993324;28;7053;-61
2022/11/27 00:16:45;;;;;;;;;;;;;;;24.47;43.81;95258.56;4981568;28;7247;-61
2022/11/27 00:19:11;;;;;;;;;;;;;;;24.46;43.93;95251.56;4976427;28;7313;-61
2022/11/27 00:21:46;;;;;;;;;;;;;;;24.46;43.91;95250.78;4989661;28;8874;-61
2022/11/27 00:24:44;;;;;;;;;;;;;;;24.46;43.94;95243.31;4989133;28;7459;-61
2022/11/27 00:27:10;;;;;;;;;;;;;;;24.44;43.63;95240.28;5007041;28;7234;-61
2022/11/27 00:29:46;;;;;;;;;;;;;;;24.44;43.91;95251.28;4999381;28;8865;-61
2022/11/27 00:32:12;;;;;;;;;;;;;;;24.43;44.11;95241.50;5005026;28;7866;-61
2022/11/27 00:34:50;;;;;;;;;;;;;;;24.43;44.06;95241.50;5026126;28;7024;-61
2022/11/27 00:37:16;;;;;;;;;;;;;;;24.43;44.00;95230.50;4980396;28;7373;-61
2022/11/27 00:39:56;;;;;;;;;;;;;;;24.43;44.12;95233.25;5008666;28;7282;-61
2022/11/27 00:42:32;;;;;;;;;;;;;;;24.44;44.04;95228.53;5015100;28;8774;-61
2022/11/27 00:45:27;;;;;;;;;;;;;;;24.43;43.89;95225.00;5007932;28;7249;-61
2022/11/27 00:47:56;;;;;;;;;;;;;;;24.41;43.50;95224.75;4966629;28;7105;-61
2022/11/27 00:50:22;;;;;;;;;;;;;;;24.41;43.67;95218.47;4953492;28;8692;-61
2022/11/27 00:52:48;;;;;;;;;;;;;;;24.41;44.05;95222.00;4957682;28;7252;-62
2022/11/27 00:55:16;;;;;;;;;;;;;;;24.39;43.96;95221.72;4971248;28;7413;-61
2022/11/27 00:57:44;;;;;;;;;;;;;;;24.40;44.26;95225.97;4967529;28;9057;-61
2022/11/27 01:00:39;;;;;;;;;;;;;;;24.43;44.48;95227.00;4966361;28;6993;-61
2022/11/27 01:03:13;;;;;;;;;;;;;;;24.40;44.20;95222.47;4975357;28;7469;-61
2022/11/27 01:06:35;;;;;;;;;;;;;;;24.40;44.34;95222.47;4976666;28;7171;-62
2022/11/27 01:09:03;;;;;;;;;;;;;;;24.38;44.34;95213.97;4973470;28;7032;-61
2022/11/27 01:12:04;;;;;;;;;;;;;;;24.39;44.57;95207.22;4972791;28;7265;-61
2022/11/27 01:14:30;;;;;;;;;;;;;;;24.37;43.89;95210.44;4933678;29;7354;-61
2022/11/27 01:16:58;;;;;;;;;;;;;;;24.38;44.76;95200.94;4941273;28;9387;-62
2022/11/27 01:19:36;;;;;;;;;;;;;;;24.37;44.19;95196.69;4934467;29;7009;-61
2022/11/27 01:22:06;;;;;;;;;;;;;;;24.38;44.53;95192.69;4918630;29;7112;-61
2022/11/27 01:24:35;;;;;;;;;;;;;;;24.38;44.28;95189.22;4928249;29;7148;-61
2022/11/27 01:27:04;;;;;;;;;;;;;;;24.39;43.61;95193.47;4918433;29;8684;-61
2022/11/27 01:29:40;;;;;;;;;;;;;;;24.39;44.39;95190.72;4928262;28;7053;-61
2022/11/27 01:32:18;;;;;;;;;;;;;;;24.38;44.50;95186.47;4909974;29;9429;-61
2022/11/27 01:35:00;;;;;;;;;;;;;;;24.37;44.34;95182.97;4916373;29;7477;-61
2022/11/27 01:37:29;;;;;;;;;;;;;;;24.37;44.47;95174.72;4923723;29;9337;-61
2022/11/27 01:39:57;;;;;;;;;;;;;;;24.39;44.42;95179.72;4931647;29;9598;-61
2022/11/27 01:42:23;;;;;;;;;;;;;;;24.38;44.20;95178.94;4942923;28;9028;-61
2022/11/27 01:44:56;;;;;;;;;;;;;;;24.38;44.18;95170.69;4963043;28;7432;-61
2022/11/27 01:47:38;;;;;;;;;;;;;;;24.39;44.35;95165.97;4943088;28;8456;-61
2022/11/27 01:50:23;;;;;;;;;;;;;;;24.38;44.41;95156.97;5028552;28;9372;-61
2022/11/27 01:52:54;;;;;;;;;;;;;;;24.39;44.11;95150.22;5028894;28;7030;-61
2022/11/27 01:55:32;;;;;;;;;;;;;;;24.39;44.35;95138.47;5017323;28;6869;-61
2022/11/27 01:58:07;;;;;;;;;;;;;;;24.38;44.36;95137.72;5023733;28;9052;-61
2022/11/27 02:00:52;;;;;;;;;;;;;;;24.38;44.48;95132.22;5032496;28;6931;-61
2022/11/27 02:03:28;;;;;;;;;;;;;;;24.38;44.54;95126.72;5021997;28;8945;-61
2022/11/27 02:06:03;;;;;;;;;;;;;;;24.38;44.37;95123.97;5031833;28;7220;-61
2022/11/27 02:08:40;;;;;;;;;;;;;;;24.38;43.84;95121.22;5031552;28;8906;-61
2022/11/27 02:11:23;;;;;;;;;;;;;;;24.39;43.87;95110.97;5012550;28;7847;-61
2022/11/27 02:14:06;;;;;;;;;;;;;;;24.38;43.87;95112.97;5034879;28;8212;-61
2022/11/27 02:16:53;;;;;;;;;;;;;;;24.36;44.44;95112.69;5020309;28;7061;-61
2022/11/27 02:19:57;;;;;;;;;;;;;;;24.38;43.88;95112.22;5012226;28;7469;-61
2022/11/27 02:22:50;;;;;;;;;;;;;;;24.36;43.79;95107.19;5017166;28;9446;-61
2022/11/27 02:25:55;;;;;;;;;;;;;;;24.37;44.16;95105.97;5018558;28;7484;-61
2022/11/27 02:28:28;;;;;;;;;;;;;;;24.38;43.74;95107.47;5023883;28;9092;-61
2022/11/27 02:31:09;;;;;;;;;;;;;;;24.32;44.33;95106.66;5012464;28;7300;-61
2022/11/27 02:33:44;;;;;;;;;;;;;;;24.32;44.03;95112.16;5026772;28;7170;-61
2022/11/27 02:36:29;;;;;;;;;;;;;;;24.30;44.23;95100.91;5029447;28;7285;-61
2022/11/27 02:39:13;;;;;;;;;;;;;;;24.30;44.21;95103.66;5027749;28;9968;-61
2022/11/27 02:41:48;;;;;;;;;;;;;;;24.30;44.33;95097.38;5023625;28;8983;-61
2022/11/27 02:44:25;;;;;;;;;;;;;;;24.36;44.25;95098.94;5021499;28;7493;-61
2022/11/27 02:46:55;;;;;;;;;;;;;;;24.37;43.93;95102.47;5022602;28;7287;-61
2022/11/27 02:49:21;;;;;;;;;;;;;;;24.35;43.86;95100.19;5022432;28;7569;-61
2022/11/27 02:51:55;;;;;;;;;;;;;;;24.34;44.06;95109.69;5031556;28;7014;-61
2022/11/27 02:54:28;;;;;;;;;;;;;;;24.35;44.04;95116.69;5014659;28;8707;-61
2022/11/27 02:57:23;;;;;;;;;;;;;;;24.36;43.72;95120.94;5018335;28;7038;-61
2022/11/27 03:00:17;;;;;;;;;;;;;;;24.36;44.58;95120.94;5027264;28;9379;-61
2022/11/27 03:03:04;;;;;;;;;;;;;;;24.34;43.72;95125.41;5016512;28;8885;-61
2022/11/27 03:05:37;;;;;;;;;;;;;;;24.30;44.04;95114.63;5018096;28;7324;-61
2022/11/27 03:08:28;;;;;;;;;;;;;;;24.31;43.82;95118.91;5023865;28;7267;-61
2022/11/27 03:11:10;;;;;;;;;;;;;;;24.30;44.40;95108.38;5016316;28;7158;-61
2022/11/27 03:13:56;;;;;;;;;;;;;;;24.28;44.70;95102.63;5015657;28;7277;-61
2022/11/27 03:17:02;;;;;;;;;;;;;;;24.26;43.93;95105.09;5029066;28;7087;-61
2022/11/27 03:19:53;;;;;;;;;;;;;;;24.26;44.32;95102.34;5013527;28;7068;-61
2022/11/27 03:22:22;;;;;;;;;;;;;;;24.24;44.44;95091.84;5028539;28;9172;-61
2022/11/27 03:24:48;;;;;;;;;;;;;;;24.25;44.30;95093.34;5017389;28;7352;-61
2022/11/27 03:27:27;;;;;;;;;;;;;;;24.26;44.68;95092.13;5026310;28;6860;-61
2022/11/27 03:30:03;;;;;;;;;;;;;;;24.27;44.21;95090.84;5017350;28;7141;-61
2022/11/27 03:32:36;;;;;;;;;;;;;;;24.26;44.52;95097.63;5013028;28;7342;-61
2022/11/27 03:35:08;;;;;;;;;;;;;;;24.25;44.31;95090.59;5019867;28;7313;-61
2022/11/27 03:37:43;;;;;;;;;;;;;;;24.25;44.30;95084.38;5027830;28;7271;-61
2022/11/27 03:40:32;;;;;;;;;;;;;;;24.29;44.51;95085.66;5032659;28;9066;-61
2022/11/27 03:43:17;;;;;;;;;;;;;;;24.26;44.49;95074.88;5030399;28;6860;-61
2022/11/27 03:46:02;;;;;;;;;;;;;;;24.27;44.35;95068.88;5019827;28;8664;-62
2022/11/27 03:48:44;;;;;;;;;;;;;;;24.28;44.64;95078.63;5021216;28;7622;-61
2022/11/27 03:51:23;;;;;;;;;;;;;;;24.31;44.10;95083.19;5030710;28;9015;-61
2022/11/27 03:53:58;;;;;;;;;;;;;;;24.33;43.75;95080.69;5028393;28;9635;-60
2022/11/27 03:57:05;;;;;;;;;;;;;;;24.35;44.07;95080.97;5018319;28;8660;-62
2022/11/27 04:00:06;;;;;;;;;;;;;;;24.36;43.72;95079.69;5000446;28;8713;-62
2022/11/27 04:03:30;;;;;;;;;;;;;;;24.35;43.70;95082.94;4999737;28;7272;-62
2022/11/27 04:05:59;;;;;;;;;;;;;;;24.35;43.41;95078.22;5002003;28;6988;-62
2022/11/27 04:08:47;;;;;;;;;;;;;;;24.36;44.28;95081.72;5013843;28;9091;-62
2022/11/27 04:11:17;;;;;;;;;;;;;;;24.33;43.89;95083.44;5000887;28;7345;-61
2022/11/27 04:14:18;;;;;;;;;;;;;;;24.28;44.54;95088.88;5003230;28;9326;-62
2022/11/27 04:16:53;;;;;;;;;;;;;;;24.32;43.98;95081.91;4941440;28;8879;-61
2022/11/27 04:19:23;;;;;;;;;;;;;;;24.33;44.12;95091.69;4951098;28;7135;-61
2022/11/27 04:22:05;;;;;;;;;;;;;;;24.34;44.13;95078.69;4955081;28;6992;-61
2022/11/27 04:24:41;;;;;;;;;;;;;;;24.34;43.81;95073.19;4956579;28;9809;-62
2022/11/27 04:27:07;;;;;;;;;;;;;;;24.35;43.99;95082.94;4957172;28;7023;-62
2022/11/27 04:29:45;;;;;;;;;;;;;;;24.35;44.11;95082.94;4957602;28;9673;-61
2022/11/27 04:32:38;;;;;;;;;;;;;;;24.35;44.02;95080.97;4973407;28;9241;-62
2022/11/27 04:35:13;;;;;;;;;;;;;;;24.34;43.85;95073.19;4957419;28;9340;-61
2022/11/27 04:37:49;;;;;;;;;;;;;;;24.34;43.91;95075.94;4973231;28;7288;-61
2022/11/27 04:40:15;;;;;;;;;;;;;;;24.33;44.20;95080.69;4967169;28;8333;-61
2022/11/27 04:42:41;;;;;;;;;;;;;;;24.34;44.38;95075.94;4962868;28;9499;-61
2022/11/27 04:45:08;;;;;;;;;;;;;;;24.34;43.75;95081.44;4982574;28;9775;-61
2022/11/27 04:47:37;;;;;;;;;;;;;;;24.34;43.95;95073.19;4966408;28;9037;-61
2022/11/27 04:50:06;;;;;;;;;;;;;;;24.35;44.17;95071.94;4968585;28;8900;-62
2022/11/27 04:52:31;;;;;;;;;;;;;;;24.34;43.78;95081.44;5029169;28;7196;-61
2022/11/27 04:54:57;;;;;;;;;;;;;;;24.34;43.63;95075.94;4991670;28;8836;-62
2022/11/27 04:57:29;;;;;;;;;;;;;;;24.34;44.05;95076.69;5024543;28;7028;-62
2022/11/27 04:59:58;;;;;;;;;;;;;;;24.32;44.17;95081.91;5020894;28;7160;-62
2022/11/27 05:02:58;;;;;;;;;;;;;;;24.33;43.96;95075.19;5018678;28;8906;-62
2022/11/27 05:05:25;;;;;;;;;;;;;;;24.32;43.78;95078.41;5039338;28;7050;-62
2022/11/27 05:08:03;;;;;;;;;;;;;;;24.31;43.93;95083.19;5041380;28;9660;-62
2022/11/27 05:10:30;;;;;;;;;;;;;;;24.31;43.82;95080.44;5038022;28;7351;-62
2022/11/27 05:13:02;;;;;;;;;;;;;;;24.30;43.79;95081.66;5045203;28;6921;-62
2022/11/27 05:15:30;;;;;;;;;;;;;;;24.33;44.23;95085.44;5025746;28;9348;-62
2022/11/27 05:17:56;;;;;;;;;;;;;;;24.32;43.91;95095.66;5037070;28;8274;-62
2022/11/27 05:20:32;;;;;;;;;;;;;;;24.33;43.95;95090.94;5020804;28;7043;-61
2022/11/27 05:23:02;;;;;;;;;;;;;;;24.34;43.91;95086.94;5024415;28;9186;-62
2022/11/27 05:25:43;;;;;;;;;;;;;;;24.32;43.59;95073.66;5042592;28;7276;-62
2022/11/27 05:28:29;;;;;;;;;;;;;;;24.33;44.63;95074.44;5019700;28;10122;-62
2022/11/27 05:31:04;;;;;;;;;;;;;;;24.32;43.66;95081.91;5027660;28;7559;-62
2022/11/27 05:34:01;;;;;;;;;;;;;;;24.32;44.52;95090.16;5035381;28;7468;-62
2022/11/27 05:36:30;;;;;;;;;;;;;;;24.31;44.17;95079.66;5004462;28;7064;-62
2022/11/27 05:39:09;;;;;;;;;;;;;;;24.30;44.19;95076.16;4995600;28;7056;-62
2022/11/27 05:41:49;;;;;;;;;;;;;;;24.30;43.41;95070.66;5010413;28;7058;-62
2022/11/27 05:44:50;;;;;;;;;;;;;;;24.32;43.66;95068.19;5010844;28;7180;-62
2022/11/27 05:47:16;;;;;;;;;;;;;;;24.35;43.95;95071.94;5005290;28;9007;-61
2022/11/27 05:49:49;;;;;;;;;;;;;;;24.35;43.73;95067.22;5001727;28;8845;-61
2022/11/27 05:52:15;;;;;;;;;;;;;;;24.34;44.16;95060.19;5007926;28;7500;-62
2022/11/27 05:54:44;;;;;;;;;;;;;;;24.32;43.89;95054.44;4991470;28;7318;-62
2022/11/27 05:57:44;;;;;;;;;;;;;;;24.33;44.23;95058.69;4991318;28;7014;-61
2022/11/27 06:00:20;;;;;;;;;;;;;;;24.34;43.89;95062.94;4930654;29;7287;-61
2022/11/27 06:02:55;;;;;;;;;;;;;;;24.35;43.46;95067.22;4916634;29;7227;-61
2022/11/27 06:05:21;;;;;;;;;;;;;;;24.34;43.97;95059.44;4915286;29;7145;-61
2022/11/27 06:07:47;;;;;;;;;;;;;;;24.23;44.57;95048.34;4933120;29;7256;-61
2022/11/27 06:10:22;;;;;;;;;;;;;;;24.18;43.86;95055.31;4917653;29;7242;-61
2022/11/27 06:12:48;;;;;;;;;;;;;;;24.20;44.34;95054.81;4932637;28;9442;-61
2022/11/27 06:15:14;;;;;;;;;;;;;;;24.18;44.30;95057.31;4926860;28;8744;-61
2022/11/27 06:17:42;;;;;;;;;;;;;;;24.17;44.32;95053.03;4932824;28;7347;-61
2022/11/27 06:20:22;;;;;;;;;;;;;;;24.16;44.07;95052.28;4942861;28;7235;-61
2022/11/27 06:23:05;;;;;;;;;;;;;;;24.18;44.31;95058.06;4926313;28;9126;-61
2022/11/27 06:25:46;;;;;;;;;;;;;;;24.17;44.41;95067.53;4928953;28;7083;-61
2022/11/27 06:28:14;;;;;;;;;;;;;;;24.15;45.13;95070.00;4951446;28;7047;-61
2022/11/27 06:30:40;;;;;;;;;;;;;;;24.16;43.95;95074.28;4935387;28;8924;-61
2022/11/27 06:33:08;;;;;;;;;;;;;;;24.15;44.44;95089.25;4950408;28;7514;-61
2022/11/27 06:35:36;;;;;;;;;;;;;;;24.17;43.97;95081.28;4975352;28;7030;-61
2022/11/27 06:38:04;;;;;;;;;;;;;;;24.18;44.50;95071.03;5024988;28;7197;-61
2022/11/27 06:40:31;;;;;;;;;;;;;;;24.18;44.52;95084.78;5008660;28;7979;-61
2022/11/27 06:42:57;;;;;;;;;;;;;;;24.16;43.48;95077.03;5010954;28;8269;-61
2022/11/27 06:45:25;;;;;;;;;;;;;;;24.18;44.12;95082.81;5013414;28;7899;-61
2022/11/27 06:47:51;;;;;;;;;;;;;;;24.20;44.18;95074.81;5013135;28;7127;-61
2022/11/27 06:50:17;;;;;;;;;;;;;;;24.18;44.39;95080.06;5012037;28;8460;-61
2022/11/27 06:52:42;;;;;;;;;;;;;;;24.21;44.39;95089.28;5013195;28;7117;-61
2022/11/27 06:55:08;;;;;;;;;;;;;;;24.23;44.28;95075.84;5022643;28;9144;-61
2022/11/27 06:57:40;;;;;;;;;;;;;;;24.28;43.95;95075.13;5018149;28;7442;-61
2022/11/27 07:00:07;;;;;;;;;;;;;;;24.27;44.32;95073.63;5025945;28;7181;-61
2022/11/27 07:02:33;;;;;;;;;;;;;;;24.26;44.32;95064.63;5011079;28;7177;-61
2022/11/27 07:05:01;;;;;;;;;;;;;;;24.28;43.92;95067.63;5012016;28;7088;-61
2022/11/27 07:07:31;;;;;;;;;;;;;;;24.27;43.90;95070.88;5029889;28;9399;-61
2022/11/27 07:09:58;;;;;;;;;;;;;;;24.30;44.17;95064.41;5022858;28;9260;-61
2022/11/27 07:12:31;;;;;;;;;;;;;;;24.29;44.31;95060.16;5032382;28;7136;-61
2022/11/27 07:14:57;;;;;;;;;;;;;;;24.30;44.42;95054.16;5023122;28;6865;-61
2022/11/27 07:17:28;;;;;;;;;;;;;;;24.34;44.36;95064.94;5042127;28;7206;-61
2022/11/27 07:19:57;;;;;;;;;;;;;;;24.34;44.37;95062.94;5024051;28;8442;-61
2022/11/27 07:22:33;;;;;;;;;;;;;;;24.35;43.89;95056.22;5027940;28;9631;-61
2022/11/27 07:24:59;;;;;;;;;;;;;;;24.33;43.96;95053.19;5021879;28;7105;-61
2022/11/27 07:27:25;;;;;;;;;;;;;;;24.35;43.78;95056.22;5024039;28;7028;-61
2022/11/27 07:29:51;;;;;;;;;;;;;;;24.25;43.98;95052.09;5030022;28;7424;-61
2022/11/27 07:32:17;;;;;;;;;;;;;;;24.24;44.06;95047.88;5015204;28;9470;-61
2022/11/27 07:34:43;;;;;;;;;;;;;;;24.24;44.55;95050.63;5015463;28;9632;-61
2022/11/27 07:37:20;;;;;;;;;;;;;;;24.30;43.86;95054.16;5025103;28;7357;-61
2022/11/27 07:39:52;;;;;;;;;;;;;;;24.32;44.20;95068.19;5029296;28;7269;-61
2022/11/27 07:42:29;;;;;;;;;;;;;;;24.34;44.20;95062.94;5029331;28;9422;-61
2022/11/27 07:45:08;;;;;;;;;;;;;;;24.40;44.01;95069.25;5022487;28;7108;-61
2022/11/27 07:47:34;;;;;;;;;;;;;;;24.42;43.71;95052.28;5032949;28;8365;-61
2022/11/27 07:50:00;;;;;;;;;;;;;;;24.45;43.65;95046.53;5028015;28;9000;-61
2022/11/27 07:52:29;;;;;;;;;;;;;;;24.45;43.49;95043.78;5023693;28;9248;-61
2022/11/27 07:54:55;;;;;;;;;;;;;;;24.42;43.36;95055.03;5034284;28;7254;-61
2022/11/27 07:57:32;;;;;;;;;;;;;;;24.45;43.38;95045.78;5014934;28;7207;-61
2022/11/27 08:00:28;;;;;;;;;;;;;;;24.40;42.79;95032.75;5022363;28;7656;-61
2022/11/27 08:02:54;;;;;;;;;;;;;;;24.41;42.65;95042.50;5002049;28;9853;-61
2022/11/27 08:05:40;;;;;;;;;;;;;;;24.35;43.57;95038.97;4985865;28;8853;-61
2022/11/27 08:08:25;;;;;;;;;;;;;;;24.33;43.51;95033.19;5002884;28;7778;-60
2022/11/27 08:11:02;;;;;;;;;;;;;;;24.32;43.73;95028.94;4994557;28;7374;-61
2022/11/27 08:13:43;;;;;;;;;;;;;;;24.27;43.39;95038.63;4993284;28;9186;-61
2022/11/27 08:16:12;;;;;;;;;;;;;;;24.25;43.89;95041.13;4986563;28;7192;-61
2022/11/27 08:19:08;;;;;;;;;;;;;;;24.25;43.81;95023.88;5008177;28;7535;-61
2022/11/27 08:21:42;;;;;;;;;;;;;;;24.22;44.49;95014.63;4932132;29;7228;-62
2022/11/27 08:24:13;;;;;;;;;;;;;;;24.21;44.54;95021.34;4925137;28;9203;-61
2022/11/27 08:26:40;;;;;;;;;;;;;;;24.22;44.22;95005.59;4931830;28;7106;-61
2022/11/27 08:29:36;;;;;;;;;;;;;;;24.27;44.53;95010.41;4930251;28;7193;-60
2022/11/27 08:32:07;;;;;;;;;;;;;;;24.30;44.36;95003.91;4838429;29;7071;-60
2022/11/27 08:34:35;;;;;;;;;;;;;;;24.37;43.97;95003.47;4834553;29;7061;-60
2022/11/27 08:37:03;;;;;;;;;;;;;;;24.38;44.49;95005.00;4838522;29;9576;-60
2022/11/27 08:39:30;;;;;;;;;;;;;;;24.38;45.27;95013.97;4849625;29;7285;-60
2022/11/27 08:41:58;;;;;;;;;;;;;;;24.41;44.62;95021.28;4872709;29;7632;-60
2022/11/27 08:44:24;;;;;;;;;;;;;;;24.40;44.68;95025.25;4872961;29;7045;-60
2022/11/27 08:46:50;;;;;;;;;;;;;;;24.43;44.96;95032.53;4872638;29;8928;-61
2022/11/27 08:49:18;;;;;;;;;;;;;;;24.43;45.52;95029.03;4869409;29;7541;-61
2022/11/27 08:51:44;;;;;;;;;;;;;;;24.49;44.56;95027.81;4873472;29;7280;-61
2022/11/27 08:54:12;;;;;;;;;;;;;;;24.50;44.68;95029.34;4872497;29;7276;-61
2022/11/27 08:56:47;;;;;;;;;;;;;;;24.49;44.45;95030.56;4856640;29;7499;-61
2022/11/27 08:59:13;;;;;;;;;;;;;;;24.50;44.71;95028.59;4934011;28;7196;-60
2022/11/27 09:01:44;;;;;;;;;;;;;;;24.42;45.04;95022.78;4944182;28;9138;-61
2022/11/27 09:04:14;;;;;;;;;;;;;;;24.42;44.97;95028.28;4946478;28;8937;-61
2022/11/27 09:06:41;;;;;;;;;;;;;;;24.43;45.74;95023.53;4949748;28;7332;-61
2022/11/27 09:09:07;;;;;;;;;;;;;;;24.45;45.05;95027.28;5004218;28;8981;-61
2022/11/27 09:11:35;;;;;;;;;;;;;;;24.46;44.72;95020.56;5021344;28;8662;-61
2022/11/27 09:14:03;;;;;;;;;;;;;;;24.54;44.78;95007.88;5016164;28;7263;-61
2022/11/27 09:16:30;;;;;;;;;;;;;;;24.58;44.29;94997.41;5020506;28;9127;-61
2022/11/27 09:19:06;;;;;;;;;;;;;;;24.56;44.60;94993.63;5018675;28;8665;-60
2022/11/27 09:21:37;;;;;;;;;;;;;;;24.52;44.58;94999.34;5028280;28;7116;-61
2022/11/27 09:24:15;;;;;;;;;;;;;;;24.52;45.21;95013.09;5028113;28;8945;-61
2022/11/27 09:26:43;;;;;;;;;;;;;;;24.54;45.07;95013.38;5031815;28;7031;-61
2022/11/27 09:29:12;;;;;;;;;;;;;;;24.56;44.33;95005.38;5021326;28;8526;-61
2022/11/27 09:31:43;;;;;;;;;;;;;;;24.59;44.67;95014.66;5027042;28;8767;-61
2022/11/27 09:34:09;;;;;;;;;;;;;;;24.58;44.10;95011.16;5037748;28;9079;-61
2022/11/27 09:36:36;;;;;;;;;;;;;;;24.59;44.37;95007.16;5018088;28;7057;-61
2022/11/27 09:39:09;;;;;;;;;;;;;;;24.59;44.41;95006.41;5031574;28;7470;-61
2022/11/27 09:41:38;;;;;;;;;;;;;;;24.57;44.38;95008.91;5027274;28;7604;-62
2022/11/27 09:44:35;;;;;;;;;;;;;;;24.58;44.28;95008.41;5025097;28;6867;-61
2022/11/27 09:47:42;;;;;;;;;;;;;;;24.58;44.67;94996.63;5037180;28;9016;-61
2022/11/27 09:50:28;;;;;;;;;;;;;;;24.59;44.01;94989.91;5034357;28;7827;-61
2022/11/27 09:53:08;;;;;;;;;;;;;;;24.48;44.74;94987.84;5041200;28;7444;-61
2022/11/27 09:55:43;;;;;;;;;;;;;;;24.51;44.93;94973.09;5038671;28;7051;-61
2022/11/27 09:58:19;;;;;;;;;;;;;;;24.47;44.19;94969.06;5023802;28;7015;-61
2022/11/27 10:00:49;;;;;;;;;;;;;;;24.50;44.91;94963.34;5024383;28;7633;-61
2022/11/27 10:03:27;;;;;;;;;;;;;;;24.52;44.91;94966.34;5013194;28;7060;-61
2022/11/27 10:06:31;;;;;;;;;;;;;;;24.53;45.14;94973.34;5015311;28;9150;-61
2022/11/27 10:09:36;;;;;;;;;;;;;;;24.58;44.47;94963.63;5021618;28;8862;-61
2022/11/27 10:12:29;;;;;;;;;;;;;;;24.57;44.35;94962.91;5014494;28;7424;-61
2022/11/27 10:15:35;;;;;;;;;;;;;;;24.67;44.31;94950.44;5014248;28;8618;-62
2022/11/27 10:18:11;;;;;;;;;;;;;;;24.61;44.69;94941.41;5023827;28;9503;-61
2022/11/27 10:20:53;;;;;;;;;;;;;;;24.58;44.95;94931.38;5023054;28;7041;-61
2022/11/27 10:23:48;;;;;;;;;;;;;;;24.58;45.32;94928.63;5011913;28;7386;-61
2022/11/27 10:26:26;;;;;;;;;;;;;;;24.56;44.92;94927.63;5026868;28;9388;-60
2022/11/27 10:29:33;;;;;;;;;;;;;;;24.59;45.33;94923.91;5016692;28;9205;-61
2022/11/27 10:32:14;;;;;;;;;;;;;;;24.54;45.00;94913.59;4987396;28;7498;-61
2022/11/27 10:34:44;;;;;;;;;;;;;;;24.54;44.94;94919.88;4990294;28;8028;-61
2022/11/27 10:37:39;;;;;;;;;;;;;;;24.54;45.48;94919.88;4992360;28;7330;-60
2022/11/27 10:40:07;;;;;;;;;;;;;;;24.62;44.64;94914.69;4983132;28;7777;-61
2022/11/27 10:43:20;;;;;;;;;;;;;;;24.69;44.80;94919.69;4973577;28;7116;-61
2022/11/27 10:46:02;;;;;;;;;;;;;;;24.70;44.70;94910.22;4938610;28;9476;-61
2022/11/27 10:48:32;;;;;;;;;;;;;;;24.72;45.14;94896.72;4926505;28;10176;-60
2022/11/27 10:51:00;;;;;;;;;;;;;;;24.75;45.01;94890.25;4942761;28;7208;-61
2022/11/27 10:53:36;;;;;;;;;;;;;;;24.73;44.63;94890.72;4929237;29;7479;-61
2022/11/27 10:56:03;;;;;;;;;;;;;;;24.74;45.21;94877.72;4932790;29;7219;-61
2022/11/27 10:58:56;;;;;;;;;;;;;;;24.74;45.30;94883.22;4937025;29;7302;-61
2022/11/27 11:01:52;;;;;;;;;;;;;;;24.73;45.10;94882.47;4937893;29;7046;-61
2022/11/27 11:04:26;;;;;;;;;;;;;;;24.75;44.51;94876.47;4892756;29;7247;-61
2022/11/27 11:07:23;;;;;;;;;;;;;;;24.70;44.72;94872.47;4879054;29;7377;-61
2022/11/27 11:09:59;;;;;;;;;;;;;;;24.71;44.84;94871.19;4874824;29;9198;-61
2022/11/27 11:12:43;;;;;;;;;;;;;;;24.77;44.73;94871.28;4875558;29;7644;-61
2022/11/27 11:15:14;;;;;;;;;;;;;;;24.78;44.83;94866.50;4860383;29;7267;-60
2022/11/27 11:17:41;;;;;;;;;;;;;;;24.78;44.90;94877.50;4856134;29;8424;-61
2022/11/27 11:20:19;;;;;;;;;;;;;;;24.77;44.75;94870.50;4871691;28;8973;-61
2022/11/27 11:22:47;;;;;;;;;;;;;;;24.70;45.44;94877.19;4967696;28;9235;-61
2022/11/27 11:25:28;;;;;;;;;;;;;;;24.70;44.76;94872.47;4969981;28;7262;-61
2022/11/27 11:28:05;;;;;;;;;;;;;;;24.73;44.91;94861.72;4963261;28;8239;-61
2022/11/27 11:31:06;;;;;;;;;;;;;;;24.71;45.04;94859.44;4970353;28;7279;-61
2022/11/27 11:34:21;;;;;;;;;;;;;;;24.75;44.80;94848.25;4988841;28;7476;-61
2022/11/27 11:37:06;;;;;;;;;;;;;;;24.81;45.43;94838.00;4919899;29;9086;-61
2022/11/27 11:39:47;;;;;;;;;;;;;;;24.85;44.83;94833.03;4933006;29;8929;-61
2022/11/27 11:42:29;;;;;;;;;;;;;;;24.83;45.24;94835.50;4927045;29;7249;-61
2022/11/27 11:45:01;;;;;;;;;;;;;;;24.79;46.25;94829.50;4927605;29;8916;-61
2022/11/27 11:47:32;;;;;;;;;;;;;;;24.81;46.38;94825.00;4926153;29;7289;-61
2022/11/27 11:49:58;;;;;;;;;;;;;;;24.83;46.16;94813.50;4912445;29;7228;-61
2022/11/27 11:52:33;;;;;;;;;;;;;;;24.80;45.49;94815.25;4913528;29;7528;-61
2022/11/27 11:55:05;;;;;;;;;;;;;;;24.80;46.65;94808.97;4927074;29;7287;-61
2022/11/27 11:57:53;;;;;;;;;;;;;;;24.81;46.44;94799.50;4930334;29;7203;-61
2022/11/27 12:00:36;;;;;;;;;;;;;;;24.84;46.71;94791.00;4910980;29;9462;-61
2022/11/27 12:03:39;;;;;;;;;;;;;;;24.91;46.17;94798.00;4918407;29;7234;-61
2022/11/27 12:06:23;;;;;;;;;;;;;;;24.94;46.78;94791.53;4933812;29;9245;-61
2022/11/27 12:09:01;;;;;;;;;;;;;;;24.96;45.97;94783.53;4994012;28;7161;-61
2022/11/27 12:11:53;;;;;;;;;;;;;;;24.97;46.53;94779.53;5018455;28;7097;-61
2022/11/27 12:14:40;;;;;;;;;;;;;;;24.99;46.17;94785.28;5035478;28;7030;-60
2022/11/27 12:17:51;;;;;;;;;;;;;;;25.00;47.03;94778.53;5014254;28;7398;-61
2022/11/27 12:20:55;;;;;;;;;;;;;;;25.03;46.87;94774.78;5025178;28;7241;-61
2022/11/27 12:23:54;;;;;;;;;;;;;;;25.06;46.71;94773.78;5014863;28;7246;-61
2022/11/27 12:26:55;;;;;;;;;;;;;;;25.09;46.38;94773.56;5034239;28;7053;-62
2022/11/27 12:29:53;;;;;;;;;;;;;;;25.15;46.92;94770.78;5025823;28;9204;-61
2022/11/27 12:32:51;;;;;;;;;;;;;;;25.14;46.58;94753.53;5038040;28;7049;-61
2022/11/27 12:35:40;;;;;;;;;;;;;;;25.17;46.81;94752.53;5012847;28;9288;-61
2022/11/27 12:38:41;;;;;;;;;;;;;;;25.18;46.65;94737.53;5015749;28;7289;-61
2022/11/27 12:41:21;;;;;;;;;;;;;;;25.21;46.17;94733.75;5019585;28;7357;-61
2022/11/27 12:43:58;;;;;;;;;;;;;;;25.24;46.48;94732.78;5030932;28;7276;-61
2022/11/27 12:46:52;;;;;;;;;;;;;;;25.29;46.55;94729.25;5021825;28;10462;-61
2022/11/27 12:49:28;;;;;;;;;;;;;;;25.32;46.42;94722.00;5021041;28;8177;-61
2022/11/27 12:52:24;;;;;;;;;;;;;;;25.33;45.79;94729.78;5025583;28;8821;-61
2022/11/27 12:55:11;;;;;;;;;;;;;;;25.34;46.35;94730.50;5022133;28;8992;-61
2022/11/27 12:57:56;;;;;;;;;;;;;;;25.34;46.40;94725.75;5038158;28;8737;-61
2022/11/27 13:00:33;;;;;;;;;;;;;;;25.27;45.75;94728.28;5018581;28;9001;-61
2022/11/27 13:03:24;;;;;;;;;;;;;;;25.29;46.33;94725.75;5020931;28;7260;-61
2022/11/27 13:06:28;;;;;;;;;;;;;;;25.28;46.34;94727.00;5039774;28;7214;-61
2022/11/27 13:09:48;;;;;;;;;;;;;;;25.26;45.66;94724.75;5034138;28;7293;-60
2022/11/27 13:12:33;;;;;;;;;;;;;;;25.24;45.66;94710.75;5022451;28;6860;-61
2022/11/27 13:15:24;;;;;;;;;;;;;;;25.28;46.00;94716.75;5020056;28;7025;-61
2022/11/27 13:18:33;;;;;;;;;;;;;;;25.30;45.21;94707.97;5040675;28;8520;-61
2022/11/27 13:21:17;;;;;;;;;;;;;;;25.31;45.41;94699.25;5004693;28;8954;-61
2022/11/27 13:23:55;;;;;;;;;;;;;;;25.32;45.28;94694.47;4996916;28;7234;-61
2022/11/27 13:26:57;;;;;;;;;;;;;;;25.34;45.59;94683.69;4998198;28;7137;-62
2022/11/27 13:29:50;;;;;;;;;;;;;;;25.35;45.05;94683.22;4988534;28;8317;-61
2022/11/27 13:32:35;;;;;;;;;;;;;;;25.34;45.29;94669.94;4981787;28;7780;-61
2022/11/27 13:35:20;;;;;;;;;;;;;;;25.34;45.61;94664.44;4996849;28;7263;-61
2022/11/27 13:37:58;;;;;;;;;;;;;;;25.30;45.45;94661.19;4995605;28;7048;-61
2022/11/27 13:40:51;;;;;;;;;;;;;;;25.34;45.64;94658.91;4990766;28;9297;-62
2022/11/27 13:43:54;;;;;;;;;;;;;;;25.34;45.86;94659.69;4976796;28;8280;-61
2022/11/27 13:46:47;;;;;;;;;;;;;;;25.35;45.27;94652.94;4917267;29;9132;-61
2022/11/27 13:49:23;;;;;;;;;;;;;;;25.29;45.68;94643.91;4932167;29;7228;-61
2022/11/27 13:51:49;;;;;;;;;;;;;;;25.28;45.95;94650.69;4931264;29;7058;-62
2022/11/27 13:54:18;;;;;;;;;;;;;;;25.25;45.93;94646.16;4922806;29;7733;-61
2022/11/27 13:56:46;;;;;;;;;;;;;;;25.24;45.71;94641.16;4925884;28;7210;-60